Time;durP1;ratioP1;P1;durP2;ratioP2;P2;SDS_P1;SDS_P2;PMS_P1;PMS_P2;Temp;Humidity;BMP_temperature;BMP_pressure;BME280_temperature;BME280_humidity;BME280_pressure;Samples;Min_cycle;Max_cycle;Signal;HPM_P1;HPM_P2
2022/05/08 00:01:35;;;;;;;16.50;15.07;;;12.00;99.90;;;;;;4901557;29;20488;-81
2022/05/08 00:04:02;;;;;;;17.10;15.60;;;12.00;99.90;;;;;;4902266;29;20458;-80
2022/05/08 00:06:30;;;;;;;19.30;15.13;;;12.00;99.90;;;;;;4901364;29;20490;-80
2022/05/08 00:08:58;;;;;;;15.60;14.00;;;12.00;99.90;;;;;;4902227;29;21101;-80
2022/05/08 00:11:24;;;;;;;17.67;16.10;;;11.90;99.90;;;;;;4901417;29;20557;-80
2022/05/08 00:13:51;;;;;;;16.90;15.30;;;11.90;99.90;;;;;;4901916;29;20466;-81
2022/05/08 00:16:18;;;;;;;17.93;16.43;;;11.90;99.90;;;;;;4901697;29;20466;-81
2022/05/08 00:18:44;;;;;;;16.87;15.17;;;11.90;99.90;;;;;;4901036;29;20467;-81
2022/05/08 00:21:11;;;;;;;16.27;14.87;;;11.80;99.90;;;;;;4901299;29;20474;-81
2022/05/08 00:23:39;;;;;;;17.23;15.73;;;11.80;99.90;;;;;;4901041;29;20473;-81
2022/05/08 00:26:08;;;;;;;17.03;15.63;;;11.70;99.90;;;;;;4901273;29;20490;-81
2022/05/08 00:28:35;;;;;;;17.93;16.20;;;11.80;99.90;;;;;;4901343;29;20558;-80
2022/05/08 00:31:02;;;;;;;19.43;17.63;;;11.70;99.90;;;;;;4901227;29;20478;-81
2022/05/08 00:33:28;;;;;;;17.73;16.20;;;11.60;99.90;;;;;;4902457;29;20845;-81
2022/05/08 00:35:55;;;;;;;18.00;16.33;;;11.60;99.90;;;;;;4901448;29;20470;-81
2022/05/08 00:38:22;;;;;;;18.40;16.80;;;11.60;99.90;;;;;;4901665;29;20489;-81
2022/05/08 00:40:50;;;;;;;19.77;17.90;;;11.60;99.90;;;;;;4900690;29;20482;-81
2022/05/08 00:43:32;;;;;;;16.13;14.60;;;11.60;99.90;;;;;;4901712;29;20463;-81
2022/05/08 00:46:03;;;;;;;17.70;15.90;;;11.50;99.90;;;;;;4901330;29;20549;-81
2022/05/08 00:48:30;;;;;;;17.57;15.97;;;11.50;99.90;;;;;;4902139;29;20459;-81
2022/05/08 00:50:58;;;;;;;22.33;17.47;;;11.50;99.90;;;;;;4902635;29;20501;-81
2022/05/08 00:53:27;;;;;;;17.90;16.03;;;11.50;99.90;;;;;;4902229;29;20465;-81
2022/05/08 00:55:56;;;;;;;16.50;15.07;;;11.50;99.90;;;;;;4901708;29;20555;-81
2022/05/08 00:58:23;;;;;;;19.20;17.23;;;11.40;99.90;;;;;;4901886;29;20511;-81
2022/05/08 01:00:50;;;;;;;18.47;16.57;;;11.40;99.90;;;;;;4901124;29;20488;-81
2022/05/08 01:03:17;;;;;;;18.30;16.50;;;11.00;99.90;;;;;;4901529;29;20458;-81
2022/05/08 01:05:45;;;;;;;19.90;18.00;;;10.70;99.90;;;;;;4900541;29;20518;-81
2022/05/08 01:08:13;;;;;;;18.87;17.07;;;10.60;99.90;;;;;;4901236;29;20466;-81
2022/05/08 01:10:40;;;;;;;17.37;15.87;;;10.70;99.90;;;;;;4901213;29;20489;-81
2022/05/08 01:13:08;;;;;;;18.10;16.33;;;10.70;99.90;;;;;;4901410;29;20465;-81
2022/05/08 01:15:42;;;;;;;19.20;16.07;;;10.70;99.90;;;;;;4900990;29;20458;-81
2022/05/08 01:18:11;;;;;;;19.20;17.40;;;10.80;99.90;;;;;;4901148;29;20464;-81
2022/05/08 01:20:38;;;;;;;18.60;16.65;;;10.60;99.90;;;;;;4900686;29;20486;-81
2022/05/08 01:23:07;;;;;;;18.10;16.17;;;10.50;99.90;;;;;;4901287;29;20218;-81
2022/05/08 01:25:36;;;;;;;18.70;17.07;;;10.60;99.90;;;;;;4900294;29;20462;-81
2022/05/08 01:28:04;;;;;;;20.20;18.40;;;10.70;99.90;;;;;;4901075;29;20454;-80
2022/05/08 01:30:31;;;;;;;19.10;16.90;;;10.80;99.90;;;;;;4900716;29;20938;-81
2022/05/08 01:33:00;;;;;;;17.90;16.30;;;10.80;99.90;;;;;;4900996;29;20967;-81
2022/05/08 01:35:28;;;;;;;21.07;18.87;;;10.80;99.90;;;;;;4900912;29;20470;-81
2022/05/08 01:37:55;;;;;;;18.17;16.43;;;10.80;99.90;;;;;;4900629;29;20522;-81
2022/05/08 01:40:23;;;;;;;19.67;18.00;;;10.80;99.90;;;;;;4901160;29;20513;-81
2022/05/08 01:42:50;;;;;;;18.57;16.90;;;10.70;99.90;;;;;;4901047;29;20462;-81
2022/05/08 01:45:16;;;;;;;18.63;16.93;;;10.70;99.90;;;;;;4900862;29;20460;-81
2022/05/08 01:50:27;;;;;;;17.73;15.97;;;10.80;99.90;;;;;;4900674;29;20545;-81
2022/05/08 01:52:54;;;;;;;20.17;17.40;;;10.80;99.90;;;;;;4912081;29;20461;-81
2022/05/08 01:55:22;;;;;;;16.67;15.17;;;10.80;99.90;;;;;;4913376;29;20455;-81
2022/05/08 01:57:49;;;;;;;16.57;15.17;;;10.80;99.90;;;;;;4914120;29;20460;-82
2022/05/08 02:00:17;;;;;;;18.47;16.73;;;10.80;99.90;;;;;;4914096;29;20461;-82
2022/05/08 02:02:48;;;;;;;19.00;17.57;;;10.80;99.90;;;;;;4914990;29;20453;-82
2022/05/08 02:05:15;;;;;;;17.20;15.67;;;10.80;99.90;;;;;;4914389;29;20468;-82
2022/05/08 02:07:42;;;;;;;18.23;16.63;;;10.80;99.90;;;;;;4913736;29;20508;-82
2022/05/08 02:10:09;;;;;;;21.73;19.50;;;10.80;99.90;;;;;;4914114;29;20469;-82
2022/05/08 02:12:38;;;;;;;21.17;19.03;;;10.70;99.90;;;;;;4913912;29;20472;-81
2022/05/08 02:15:06;;;;;;;19.70;18.03;;;10.80;99.90;;;;;;4913157;29;20465;-82
2022/05/08 02:17:32;;;;;;;18.33;16.60;;;10.80;99.90;;;;;;4915518;29;20461;-81
2022/05/08 02:19:59;;;;;;;17.90;16.13;;;10.80;99.90;;;;;;4917327;29;20457;-81
2022/05/08 02:22:26;;;;;;;19.70;17.80;;;10.80;99.90;;;;;;4923125;29;20482;-82
2022/05/08 02:24:53;;;;;;;19.00;17.23;;;10.80;99.90;;;;;;4923604;29;20449;-82
2022/05/08 02:27:20;;;;;;;18.50;16.90;;;10.80;99.90;;;;;;4923146;29;20484;-82
2022/05/08 02:29:49;;;;;;;19.33;17.37;;;10.70;99.90;;;;;;4916932;29;20462;-81
2022/05/08 02:32:16;;;;;;;19.50;17.70;;;10.70;99.90;;;;;;4916749;29;20492;-81
2022/05/08 02:34:43;;;;;;;18.70;16.83;;;10.70;99.90;;;;;;4917086;29;20461;-81
2022/05/08 02:37:10;;;;;;;17.57;16.10;;;10.70;99.90;;;;;;4917259;29;20990;-82
2022/05/08 02:39:37;;;;;;;19.33;17.63;;;10.70;99.90;;;;;;4916807;29;20452;-81
2022/05/08 02:42:04;;;;;;;19.00;17.37;;;10.70;99.90;;;;;;4916702;29;20488;-81
2022/05/08 02:44:30;;;;;;;18.43;16.73;;;10.70;99.90;;;;;;4916891;29;20479;-81
2022/05/08 02:46:58;;;;;;;19.43;17.40;;;10.70;99.90;;;;;;4916715;29;20499;-81
2022/05/08 02:49:26;;;;;;;18.90;17.20;;;10.60;99.90;;;;;;4915875;29;20473;-81
2022/05/08 02:51:52;;;;;;;21.23;19.00;;;10.50;99.90;;;;;;4914595;29;20572;-81
2022/05/08 02:54:19;;;;;;;19.67;17.80;;;10.40;99.90;;;;;;4916535;29;20463;-81
2022/05/08 02:59:30;;;;;;;18.83;17.13;;;10.50;99.90;;;;;;4917301;29;20456;-81
2022/05/08 03:01:58;;;;;;;17.93;16.10;;;10.50;99.90;;;;;;4916779;29;20478;-81
2022/05/08 03:04:25;;;;;;;19.37;17.73;;;10.50;99.90;;;;;;4916625;29;20462;-81
2022/05/08 03:06:52;;;;;;;21.40;19.23;;;10.40;99.90;;;;;;4916293;29;20954;-81
2022/05/08 03:09:18;;;;;;;18.67;16.00;;;10.40;99.90;;;;;;4918299;29;20800;-80
2022/05/08 03:11:45;;;;;;;19.87;18.00;;;10.50;99.90;;;;;;4916588;29;20481;-81
2022/05/08 03:14:12;;;;;;;19.23;17.33;;;10.50;99.90;;;;;;4915079;29;20454;-81
2022/05/08 03:16:40;;;;;;;18.30;16.53;;;10.40;99.90;;;;;;4915710;29;20535;-81
2022/05/08 03:19:08;;;;;;;19.03;17.20;;;10.40;99.90;;;;;;4915069;29;20466;-81
2022/05/08 03:21:35;;;;;;;19.67;17.98;;;10.40;99.90;;;;;;4915534;29;20481;-81
2022/05/08 03:24:02;;;;;;;19.60;17.60;;;10.40;99.90;;;;;;4915148;29;20209;-81
2022/05/08 03:26:31;;;;;;;17.37;15.87;;;10.40;99.90;;;;;;4915251;29;20488;-81
2022/05/08 03:28:57;;;;;;;19.40;17.60;;;10.40;99.90;;;;;;4915647;29;20485;-81
2022/05/08 03:31:24;;;;;;;19.07;17.17;;;10.40;99.90;;;;;;4915800;29;20478;-82
2022/05/08 03:33:51;;;;;;;22.23;19.93;;;10.40;99.90;;;;;;4914881;29;20456;-83
2022/05/08 03:36:19;;;;;;;20.42;18.45;;;10.30;99.90;;;;;;4915118;29;20468;-81
2022/05/08 03:38:47;;;;;;;22.03;19.70;;;10.20;99.90;;;;;;4915510;29;20213;-81
2022/05/08 03:41:15;;;;;;;22.87;20.53;;;10.10;99.90;;;;;;4915284;29;20573;-81
2022/05/08 03:43:42;;;;;;;21.07;18.80;;;10.10;99.90;;;;;;4915350;29;21002;-81
2022/05/08 03:46:09;;;;;;;23.80;21.60;;;10.10;99.90;;;;;;4914865;29;20461;-83
2022/05/08 03:48:37;;;;;;;24.97;22.27;;;10.20;99.90;;;;;;4913107;29;20530;-82
2022/05/08 03:51:04;;;;;;;24.90;22.40;;;10.00;99.90;;;;;;4911356;29;20484;-81
2022/05/08 03:53:33;;;;;;;24.60;22.13;;;10.00;99.90;;;;;;4913087;29;20214;-81
2022/05/08 03:55:59;;;;;;;22.37;20.13;;;10.00;99.90;;;;;;4913366;29;20458;-81
2022/05/08 03:58:27;;;;;;;21.70;19.77;;;10.10;99.90;;;;;;4913784;29;20450;-80
2022/05/08 04:00:54;;;;;;;23.50;19.60;;;10.10;99.90;;;;;;4913718;29;20233;-81
2022/05/08 04:03:21;;;;;;;23.83;21.43;;;10.10;99.90;;;;;;4914261;29;20450;-81
2022/05/08 04:05:48;;;;;;;23.53;21.03;;;10.10;99.90;;;;;;4918609;29;20466;-80
2022/05/08 04:08:14;;;;;;;24.93;22.63;;;10.10;99.90;;;;;;4922418;29;20504;-83
2022/05/08 04:10:42;;;;;;;23.33;20.83;;;10.00;99.90;;;;;;4920283;29;20478;-83
2022/05/08 04:13:09;;;;;;;20.98;19.08;;;10.00;99.90;;;;;;4913019;29;20457;-84
2022/05/08 04:18:20;;;;;;;22.37;20.07;;;10.00;99.90;;;;;;4905903;29;20453;-83
2022/05/08 04:20:46;;;;;;;20.77;18.77;;;10.00;99.90;;;;;;4912770;29;20493;-82
2022/05/08 04:25:59;;;;;;;20.87;18.87;;;10.10;99.90;;;;;;4913007;29;20453;-81
2022/05/08 04:28:26;;;;;;;23.23;20.97;;;10.10;99.90;;;;;;4913253;29;20485;-82
2022/05/08 04:30:52;;;;;;;24.20;20.20;;;10.10;99.90;;;;;;4912129;29;20486;-81
2022/05/08 04:33:19;;;;;;;22.50;20.20;;;10.00;99.90;;;;;;4912633;29;20469;-81
2022/05/08 04:35:46;;;;;;;21.30;19.03;;;10.10;99.90;;;;;;4911672;29;20460;-81
2022/05/08 04:38:12;;;;;;;21.97;19.80;;;10.10;99.90;;;;;;4911710;29;20452;-81
2022/05/08 04:40:41;;;;;;;21.83;19.57;;;10.10;99.90;;;;;;4910183;29;20487;-81
2022/05/08 04:43:09;;;;;;;24.43;20.93;;;10.20;99.90;;;;;;4910053;29;20462;-81
2022/05/08 04:45:36;;;;;;;22.67;20.43;;;10.20;99.90;;;;;;4910822;29;20457;-81
2022/05/08 04:48:03;;;;;;;24.02;21.63;;;10.20;99.90;;;;;;4911704;29;20491;-80
2022/05/08 04:50:31;;;;;;;22.53;20.30;;;10.20;99.90;;;;;;4911963;29;20633;-81
2022/05/08 04:52:57;;;;;;;24.40;22.00;;;10.20;99.90;;;;;;4911726;29;20454;-80
2022/05/08 04:55:24;;;;;;;23.77;21.38;;;10.30;99.90;;;;;;4909913;29;20208;-80
2022/05/08 04:57:51;;;;;;;22.43;20.17;;;10.30;99.90;;;;;;4909825;29;20200;-81
2022/05/08 05:00:19;;;;;;;23.13;20.63;;;10.30;99.90;;;;;;4909605;29;20460;-80
2022/05/08 05:02:46;;;;;;;26.43;21.40;;;10.30;99.90;;;;;;4911362;29;20460;-81
2022/05/08 05:05:13;;;;;;;22.63;20.37;;;10.30;99.90;;;;;;4911935;29;20540;-81
2022/05/08 05:07:41;;;;;;;24.20;21.70;;;10.30;99.90;;;;;;4911700;29;20498;-81
2022/05/08 05:10:10;;;;;;;24.63;22.07;;;10.40;99.90;;;;;;4912277;29;20210;-82
2022/05/08 05:12:37;;;;;;;23.63;21.30;;;10.30;99.90;;;;;;4912594;29;20457;-81
2022/05/08 05:15:04;;;;;;;24.60;22.05;;;9.90;99.90;;;;;;4913407;29;20485;-81
2022/05/08 05:17:32;;;;;;;27.03;24.43;;;10.00;99.90;;;;;;4913934;29;20607;-82
2022/05/08 05:19:59;;;;;;;25.17;22.58;;;10.10;99.90;;;;;;4913915;29;20463;-81
2022/05/08 05:22:26;;;;;;;25.15;22.58;;;10.20;99.90;;;;;;4913593;29;20232;-81
2022/05/08 05:24:56;;;;;;;25.17;22.73;;;10.30;99.90;;;;;;4913652;29;20208;-81
2022/05/08 05:27:23;;;;;;;25.00;22.73;;;10.40;99.90;;;;;;4915046;29;20487;-81
2022/05/08 05:29:49;;;;;;;24.13;21.50;;;10.50;99.90;;;;;;4913633;29;20456;-81
2022/05/08 05:32:16;;;;;;;25.13;22.60;;;10.60;99.90;;;;;;4913211;29;20474;-81
2022/05/08 05:34:44;;;;;;;24.23;21.93;;;10.70;99.90;;;;;;4913702;29;20458;-81
2022/05/08 05:37:11;;;;;;;25.33;22.73;;;10.80;99.90;;;;;;4912840;29;20454;-82
2022/05/08 05:39:38;;;;;;;26.33;23.77;;;10.80;99.90;;;;;;4913076;29;20458;-81
2022/05/08 05:42:05;;;;;;;25.73;23.17;;;10.80;99.90;;;;;;4912724;29;20482;-81
2022/05/08 05:44:32;;;;;;;24.53;21.97;;;10.80;99.90;;;;;;4913330;29;20462;-82
2022/05/08 05:49:44;;;;;;;23.20;20.80;;;11.00;99.90;;;;;;4912424;29;20469;-81
2022/05/08 05:52:11;;;;;;;24.80;22.30;;;11.10;99.90;;;;;;4915723;29;20509;-83
2022/05/08 05:54:37;;;;;;;23.87;21.53;;;11.20;99.90;;;;;;4915689;29;20451;-81
2022/05/08 05:57:05;;;;;;;25.73;23.13;;;11.30;99.90;;;;;;4915195;29;20462;-81
2022/05/08 05:59:31;;;;;;;25.70;23.10;;;11.20;99.90;;;;;;4916007;29;20458;-81
2022/05/08 06:01:58;;;;;;;26.33;23.67;;;11.30;99.90;;;;;;4915326;29;20559;-81
2022/05/08 06:04:25;;;;;;;31.23;24.17;;;11.30;99.90;;;;;;4915889;29;20463;-83
2022/05/08 06:06:53;;;;;;;24.07;21.57;;;11.40;99.90;;;;;;4914916;29;20466;-82
2022/05/08 06:09:19;;;;;;;25.43;22.83;;;11.30;99.90;;;;;;4915807;29;20458;-81
2022/05/08 06:11:46;;;;;;;26.27;23.47;;;11.30;99.90;;;;;;4914521;29;20470;-82
2022/05/08 06:14:13;;;;;;;24.57;22.17;;;11.50;99.90;;;;;;4915794;29;20459;-82
2022/05/08 06:16:41;;;;;;;26.33;23.67;;;11.60;99.90;;;;;;4915517;29;20451;-82
2022/05/08 06:19:08;;;;;;;24.80;22.30;;;11.70;99.90;;;;;;4915533;29;20487;-82
2022/05/08 06:21:34;;;;;;;27.03;24.43;;;11.60;99.90;;;;;;4915034;29;20498;-82
2022/05/08 06:24:03;;;;;;;25.47;22.93;;;11.50;99.90;;;;;;4915229;29;21003;-83
2022/05/08 06:26:29;;;;;;;26.70;24.13;;;11.50;99.90;;;;;;4915125;29;20453;-82
2022/05/08 06:28:57;;;;;;;25.77;23.03;;;11.70;99.90;;;;;;4915726;29;20493;-82
2022/05/08 06:31:24;;;;;;;26.10;23.70;;;11.90;99.90;;;;;;4913503;29;20483;-81
2022/05/08 06:33:51;;;;;;;25.03;22.63;;;12.00;99.90;;;;;;4913248;29;20469;-82
2022/05/08 06:36:18;;;;;;;27.90;25.03;;;11.90;99.90;;;;;;4916397;29;20474;-83
2022/05/08 06:38:45;;;;;;;25.63;23.27;;;12.00;99.90;;;;;;4917860;29;20460;-83
2022/05/08 06:41:13;;;;;;;28.80;25.70;;;12.00;99.90;;;;;;4918009;29;20477;-83
2022/05/08 06:43:41;;;;;;;28.80;25.80;;;12.00;99.90;;;;;;4918192;29;20522;-82
2022/05/08 06:46:08;;;;;;;27.50;24.80;;;12.10;99.90;;;;;;4919273;29;20470;-83
2022/05/08 06:48:35;;;;;;;26.60;24.00;;;12.20;99.90;;;;;;4918505;29;20498;-83
2022/05/08 06:51:02;;;;;;;24.63;22.23;;;12.20;99.90;;;;;;4917730;29;20493;-83
2022/05/08 06:53:29;;;;;;;24.27;21.87;;;12.40;99.90;;;;;;4918533;29;20456;-83
2022/05/08 06:55:56;;;;;;;25.30;23.00;;;12.40;99.90;;;;;;4917028;29;20459;-83
2022/05/08 06:58:24;;;;;;;24.83;22.60;;;12.60;99.90;;;;;;4918296;29;20455;-84
2022/05/08 07:03:36;;;;;;;25.20;22.00;;;12.90;99.90;;;;;;4922528;29;20471;-83
2022/05/08 07:06:03;;;;;;;25.53;23.13;;;13.10;99.90;;;;;;4918320;29;20455;-83
2022/05/08 07:08:29;;;;;;;24.03;21.10;;;13.30;99.90;;;;;;4917419;29;20491;-83
2022/05/08 07:10:56;;;;;;;24.47;22.07;;;13.40;99.90;;;;;;4917627;29;20482;-83
2022/05/08 07:13:26;;;;;;;30.43;22.30;;;13.50;99.90;;;;;;4918895;29;20514;-83
2022/05/08 07:15:53;;;;;;;22.90;20.80;;;13.70;99.90;;;;;;4918879;29;21013;-84
2022/05/08 07:18:19;;;;;;;24.27;21.97;;;13.80;99.90;;;;;;4917898;29;20470;-83
2022/05/08 07:20:46;;;;;;;22.87;20.67;;;13.90;99.90;;;;;;4916193;29;20468;-85
2022/05/08 07:23:13;;;;;;;21.93;19.83;;;14.10;99.90;;;;;;4898509;29;20464;-84
2022/05/08 07:25:41;;;;;;;24.13;21.73;;;14.20;99.90;;;;;;4897913;29;20453;-84
2022/05/08 07:28:08;;;;;;;22.80;20.60;;;14.20;99.90;;;;;;4915675;29;20499;-83
2022/05/08 07:30:36;;;;;;;24.37;21.90;;;14.30;99.90;;;;;;4917318;29;20476;-84
2022/05/08 07:33:03;;;;;;;21.50;19.40;;;14.60;99.90;;;;;;4917600;29;20448;-83
2022/05/08 07:38:16;;;;;;;22.63;20.57;;;14.90;99.90;;;;;;4916268;29;20514;-84
2022/05/08 07:40:47;;;;;;;20.73;18.80;;;15.00;99.90;;;;;;4916816;29;20486;-83
2022/05/08 07:43:15;;;;;;;21.10;19.07;;;15.10;99.90;;;;;;4916521;29;20540;-84
2022/05/08 07:45:43;;;;;;;17.10;15.60;;;15.30;99.90;;;;;;4916617;29;20462;-84
2022/05/08 07:48:10;;;;;;;15.90;14.50;;;15.50;99.90;;;;;;4917410;29;20492;-84
2022/05/08 07:50:37;;;;;;;18.97;17.27;;;15.60;99.90;;;;;;4916319;29;20458;-84
2022/05/08 07:53:03;;;;;;;15.20;13.87;;;15.80;99.90;;;;;;4904668;29;20455;-83
2022/05/08 07:55:32;;;;;;;14.13;12.83;;;15.60;99.90;;;;;;4903205;29;20468;-83
2022/05/08 07:57:59;;;;;;;15.77;14.27;;;15.90;99.90;;;;;;4903137;29;20460;-83
2022/05/08 08:00:25;;;;;;;12.87;11.77;;;16.20;99.90;;;;;;4903522;29;20857;-82
2022/05/08 08:02:54;;;;;;;13.53;12.33;;;16.40;99.90;;;;;;4904549;29;20466;-85
2022/05/08 08:05:21;;;;;;;14.40;13.20;;;16.60;99.90;;;;;;4903465;29;20469;-85
2022/05/08 08:07:48;;;;;;;14.30;13.00;;;16.80;99.90;;;;;;4904324;29;21086;-85
2022/05/08 08:10:15;;;;;;;12.80;11.80;;;17.00;99.90;;;;;;4903456;29;20459;-85
2022/05/08 08:12:42;;;;;;;13.40;12.20;;;17.20;99.90;;;;;;4903898;29;20464;-85
2022/05/08 08:15:10;;;;;;;12.70;11.67;;;17.30;99.90;;;;;;4902522;29;20461;-85
2022/05/08 08:17:37;;;;;;;11.93;10.93;;;17.60;99.90;;;;;;4903653;29;20473;-85
2022/05/08 08:20:07;;;;;;;12.60;11.50;;;17.70;99.90;;;;;;4903558;29;20474;-85
2022/05/08 08:22:34;;;;;;;12.67;11.57;;;18.00;99.90;;;;;;4903769;29;20518;-85
2022/05/08 08:25:02;;;;;;;11.43;10.63;;;18.20;99.90;;;;;;4907139;29;20477;-85
2022/05/08 08:27:29;;;;;;;12.07;11.10;;;18.40;99.90;;;;;;4905280;29;20467;-85
2022/05/08 08:29:55;;;;;;;12.13;11.13;;;18.60;99.90;;;;;;4904009;29;20903;-85
2022/05/08 08:32:22;;;;;;;12.33;11.43;;;18.60;99.80;;;;;;4904619;29;20543;-85
2022/05/08 08:34:50;;;;;;;12.03;11.10;;;18.30;99.40;;;;;;4905223;29;20463;-84
2022/05/08 08:37:18;;;;;;;10.93;10.23;;;18.30;99.80;;;;;;4905264;29;20466;-86
2022/05/08 08:39:45;;;;;;;11.60;10.50;;;18.00;99.50;;;;;;4904802;29;20468;-84
2022/05/08 08:42:22;;;;;;;11.10;10.20;;;18.20;99.90;;;;;;4903962;29;20479;-84
2022/05/08 08:47:44;;;;;;;9.67;8.87;;;18.80;99.90;;;;;;4904927;29;20443;-84
2022/05/08 08:50:11;;;;;;;10.50;9.50;;;19.00;99.20;;;;;;4904329;29;20463;-85
2022/05/08 08:52:39;;;;;;;10.20;9.50;;;19.20;98.60;;;;;;4903444;29;20465;-85
2022/05/08 08:55:08;;;;;;;10.43;9.63;;;19.40;98.90;;;;;;4902937;29;20459;-85
2022/05/08 08:57:35;;;;;;;10.30;9.60;;;19.70;97.80;;;;;;4902917;29;20515;-85
2022/05/08 09:00:03;;;;;;;9.63;8.90;;;19.90;97.50;;;;;;4901233;29;20451;-85
2022/05/08 09:02:30;;;;;;;10.47;9.77;;;20.00;96.40;;;;;;4901800;29;20475;-86
2022/05/08 09:04:57;;;;;;;11.30;10.30;;;20.20;96.40;;;;;;4902071;29;20978;-87
2022/05/08 09:07:41;;;;;;;9.70;9.10;;;20.30;95.40;;;;;;4902492;29;20464;-86
2022/05/08 09:10:10;;;;;;;11.17;10.20;;;20.30;95.80;;;;;;4901853;29;20504;-86
2022/05/08 09:12:37;;;;;;;9.97;9.27;;;20.40;95.00;;;;;;4901745;29;20460;-86
2022/05/08 09:15:23;;;;;;;10.60;9.70;;;20.50;95.30;;;;;;4901810;29;20551;-86
2022/05/08 09:17:51;;;;;;;10.70;9.93;;;20.70;94.60;;;;;;4901107;29;20477;-85
2022/05/08 09:20:26;;;;;;;10.70;9.70;;;20.70;94.20;;;;;;4900897;29;20457;-85
2022/05/08 09:23:09;;;;;;;10.40;9.60;;;20.80;93.80;;;;;;4891842;29;20453;-86
2022/05/08 09:25:44;;;;;;;10.90;10.00;;;20.70;93.80;;;;;;4901239;29;20428;-85
2022/05/08 09:28:11;;;;;;;10.63;9.90;;;21.00;93.70;;;;;;4901259;29;20500;-86
2022/05/08 09:31:00;;;;;;;10.40;9.40;;;21.00;93.30;;;;;;4901273;29;20484;-86
2022/05/08 09:33:30;;;;;;;11.00;10.10;;;20.90;93.30;;;;;;4902309;29;20456;-85
2022/05/08 09:35:57;;;;;;;10.80;10.03;;;20.80;93.10;;;;;;4901404;29;20985;-86
2022/05/08 09:38:44;;;;;;;10.00;9.30;;;21.00;93.10;;;;;;4903441;29;20986;-86
2022/05/08 09:41:11;;;;;;;11.50;10.40;;;21.10;92.70;;;;;;4882580;29;21022;-86
2022/05/08 09:43:40;;;;;;;10.37;9.57;;;21.10;92.40;;;;;;4884844;29;20472;-86
2022/05/08 09:46:08;;;;;;;9.57;8.97;;;21.30;91.70;;;;;;4902929;29;20564;-86
2022/05/08 09:48:35;;;;;;;10.50;9.60;;;21.40;93.00;;;;;;4915452;29;20529;-85
2022/05/08 09:51:03;;;;;;;10.40;9.60;;;21.50;91.50;;;;;;4915928;29;20476;-84
2022/05/08 09:53:33;;;;;;;10.17;9.40;;;21.20;91.50;;;;;;4909848;29;20468;-85
2022/05/08 09:56:02;;;;;;;10.60;9.60;;;20.80;90.70;;;;;;4903777;29;20445;-86
2022/05/08 09:58:29;;;;;;;11.00;10.10;;;21.00;91.20;;;;;;4903148;29;20479;-86
2022/05/08 10:00:56;;;;;;;9.53;8.73;;;21.10;91.90;;;;;;4904467;29;20547;-87
2022/05/08 10:03:24;;;;;;;10.00;9.20;;;21.20;91.60;;;;;;4902585;29;20453;-87
2022/05/08 10:05:51;;;;;;;11.67;10.57;;;20.90;90.20;;;;;;4891507;29;20967;-84
2022/05/08 10:08:22;;;;;;;10.30;9.40;;;21.00;91.40;;;;;;4901153;29;20471;-85
2022/05/08 10:13:57;;;;;;;9.13;8.40;;;21.20;91.70;;;;;;4903127;29;20542;-85
2022/05/08 10:17:01;;;;;;;10.20;9.40;;;21.10;90.50;;;;;;4899014;29;20508;-83
2022/05/08 10:19:55;;;;;;;10.83;9.93;;;21.30;91.30;;;;;;4892431;29;20537;-84
2022/05/08 10:22:22;;;;;;;10.10;9.10;;;21.30;90.80;;;;;;4900589;29;20491;-83
2022/05/08 10:24:56;;;;;;;8.50;8.00;;;21.60;91.30;;;;;;4909486;29;20459;-83
2022/05/08 10:27:28;;;;;;;10.03;9.13;;;21.50;90.20;;;;;;4905448;29;20461;-82
2022/05/08 10:30:23;;;;;;;10.10;9.17;;;21.40;90.60;;;;;;4909240;29;20493;-84
2022/05/08 10:32:51;;;;;;;9.77;8.97;;;21.40;91.00;;;;;;4901556;29;20466;-82
2022/05/08 10:35:20;;;;;;;9.60;8.80;;;21.70;91.00;;;;;;4908644;29;20505;-81
2022/05/08 10:37:47;;;;;;;9.10;8.40;;;21.90;90.30;;;;;;4902687;29;20458;-83
2022/05/08 10:40:37;;;;;;;9.10;8.40;;;22.00;88.60;;;;;;4908876;29;20457;-85
2022/05/08 10:46:22;;;;;;;10.07;9.37;;;22.30;89.30;;;;;;4911010;29;20498;-82
2022/05/08 10:48:49;;;;;;;8.13;7.50;;;22.50;89.70;;;;;;4909596;29;20550;-82
2022/05/08 10:51:16;;;;;;;7.20;6.60;;;22.80;89.60;;;;;;4912289;29;20491;-82
2022/05/08 10:53:46;;;;;;;7.30;6.70;;;22.90;83.10;;;;;;4911130;29;20464;-82
2022/05/08 10:56:14;;;;;;;6.10;5.60;;;22.80;83.00;;;;;;4909941;29;20463;-82
2022/05/08 10:58:56;;;;;;;6.40;5.60;;;22.90;82.10;;;;;;4910108;29;20495;-80
2022/05/08 11:01:25;;;;;;;6.70;6.03;;;23.20;84.00;;;;;;4908668;29;20535;-80
2022/05/08 11:03:52;;;;;;;5.10;4.70;;;23.70;83.10;;;;;;4910607;29;20477;-81
2022/05/08 11:06:21;;;;;;;5.67;5.27;;;24.00;80.30;;;;;;4895879;29;20571;-80
2022/05/08 11:08:48;;;;;;;6.80;6.30;;;24.50;80.90;;;;;;4904472;29;20488;-81
2022/05/08 11:11:14;;;;;;;6.60;6.00;;;24.60;77.50;;;;;;4902501;29;20478;-82
2022/05/08 11:13:46;;;;;;;5.97;5.57;;;24.80;76.70;;;;;;4900126;29;20455;-81
2022/05/08 11:16:29;;;;;;;7.00;6.50;;;24.80;76.10;;;;;;4900971;29;20465;-82
2022/05/08 11:18:58;;;;;;;5.53;5.03;;;25.20;75.50;;;;;;4901262;29;20460;-82
2022/05/08 11:21:26;;;;;;;5.57;5.17;;;25.40;72.80;;;;;;4889508;29;20476;-84
2022/05/08 11:23:54;;;;;;;6.50;6.00;;;25.50;71.40;;;;;;4902261;29;20452;-83
2022/05/08 11:26:28;;;;;;;6.00;5.60;;;25.80;70.50;;;;;;4904828;29;20527;-82
2022/05/08 11:28:57;;;;;;;6.20;5.73;;;26.10;69.20;;;;;;4904965;29;20485;-83
2022/05/08 11:31:27;;;;;;;5.17;4.77;;;26.40;69.20;;;;;;4905150;29;20515;-84
2022/05/08 11:36:40;;;;;;;6.73;6.23;;;27.40;69.70;;;;;;4906877;29;20473;-78
2022/05/08 11:39:10;;;;;;;6.03;5.63;;;28.00;64.60;;;;;;4907825;29;20449;-84
2022/05/08 11:41:38;;;;;;;6.27;5.77;;;28.40;63.30;;;;;;4908548;29;20989;-85
2022/05/08 11:44:28;;;;;;;7.17;6.57;;;28.30;60.70;;;;;;4908155;29;20459;-84
2022/05/08 11:46:57;;;;;;;6.07;5.60;;;28.10;59.50;;;;;;4906495;29;20473;-84
2022/05/08 11:49:26;;;;;;;6.97;6.57;;;28.30;60.30;;;;;;4905932;29;20496;-85
2022/05/08 11:51:54;;;;;;;7.37;6.83;;;28.00;60.30;;;;;;4906365;29;20485;-84
2022/05/08 11:54:23;;;;;;;5.80;5.27;;;28.30;62.60;;;;;;4906509;29;20453;-85
2022/05/08 11:57:09;;;;;;;5.70;5.27;;;28.60;58.70;;;;;;4907660;29;20552;-84
2022/05/08 11:59:36;;;;;;;5.40;5.00;;;28.60;56.30;;;;;;4906076;29;20452;-85
2022/05/08 12:02:05;;;;;;;5.50;5.10;;;28.70;56.30;;;;;;4906468;29;20488;-84
2022/05/08 12:04:33;;;;;;;5.27;4.87;;;28.80;57.10;;;;;;4906681;29;20458;-85
2022/05/08 12:07:05;;;;;;;5.50;5.00;;;28.60;56.20;;;;;;4907406;29;20458;-85
2022/05/08 12:09:33;;;;;;;4.57;4.17;;;28.70;56.20;;;;;;4910101;29;20498;-85
2022/05/08 12:12:23;;;;;;;4.70;4.40;;;28.50;54.10;;;;;;4908139;29;20489;-85
2022/05/08 12:14:51;;;;;;;5.03;4.60;;;28.30;54.40;;;;;;4907077;29;20489;-84
2022/05/08 12:17:20;;;;;;;4.80;4.40;;;28.40;54.40;;;;;;4906671;29;20461;-84
2022/05/08 12:19:51;;;;;;;5.47;4.20;;;28.50;53.90;;;;;;4907343;29;21019;-85
2022/05/08 12:22:18;;;;;;;4.57;4.17;;;28.10;52.90;;;;;;4906568;29;20545;-84
2022/05/08 12:24:45;;;;;;;4.57;4.27;;;27.90;53.50;;;;;;4905816;29;20517;-85
2022/05/08 12:27:12;;;;;;;4.40;4.00;;;27.90;53.10;;;;;;4904996;29;20460;-86
2022/05/08 12:29:43;;;;;;;4.27;3.97;;;28.00;54.20;;;;;;4913185;29;20496;-83
2022/05/08 12:32:10;;;;;;;4.80;4.50;;;27.80;53.70;;;;;;4913257;29;20487;-85
2022/05/08 12:34:40;;;;;;;4.40;4.10;;;27.80;53.30;;;;;;4909264;29;20457;-85
2022/05/08 12:37:07;;;;;;;4.93;4.43;;;27.90;53.40;;;;;;4903878;29;20485;-85
2022/05/08 12:39:34;;;;;;;4.03;3.73;;;27.80;53.30;;;;;;4903252;29;20457;-85
2022/05/08 12:42:01;;;;;;;4.07;3.87;;;27.90;54.30;;;;;;4902657;29;20885;-85
2022/05/08 12:44:28;;;;;;;3.80;3.60;;;27.90;52.60;;;;;;4903227;29;20472;-85
2022/05/08 12:46:56;;;;;;;4.30;4.00;;;28.00;52.50;;;;;;4903301;29;20478;-86
2022/05/08 12:49:22;;;;;;;4.83;4.40;;;28.10;53.20;;;;;;4903213;29;20536;-85
2022/05/08 12:51:51;;;;;;;4.00;3.80;;;28.10;53.00;;;;;;4903343;29;20494;-85
2022/05/08 12:54:17;;;;;;;4.70;4.30;;;28.40;52.80;;;;;;4904411;29;20464;-86
2022/05/08 12:56:45;;;;;;;5.00;4.60;;;28.70;54.10;;;;;;4904091;29;20517;-86
2022/05/08 13:01:56;;;;;;;4.93;4.63;;;28.40;52.20;;;;;;4903483;29;20541;-86
2022/05/08 13:04:23;;;;;;;4.60;4.30;;;28.50;51.60;;;;;;4904910;29;20473;-85
2022/05/08 13:06:51;;;;;;;5.30;4.90;;;28.60;52.60;;;;;;4904295;29;20462;-86
2022/05/08 13:09:18;;;;;;;4.77;4.47;;;28.80;51.30;;;;;;4904882;29;20493;-86
2022/05/08 13:11:45;;;;;;;4.97;4.67;;;29.00;51.10;;;;;;4904847;29;20475;-86
2022/05/08 13:14:12;;;;;;;5.20;4.80;;;28.70;50.10;;;;;;4904627;29;20968;-85